createdAt,value
2023-01-17T00:02:16.610Z,101183.63
2023-01-17T00:05:02.768Z,101169.28
2023-01-17T00:07:49.567Z,101172.84
2023-01-17T00:10:22.073Z,101163.94
2023-01-17T00:12:52.020Z,101168.47
2023-01-17T00:15:23.794Z,101168.09
2023-01-17T00:17:51.843Z,101168.25
2023-01-17T00:20:45.492Z,101164.34
2023-01-17T00:23:44.555Z,101155.56
2023-01-17T00:26:18.973Z,101146.75
2023-01-17T00:29:06.643Z,101154.72
2023-01-17T00:31:53.047Z,101150.09
2023-01-17T00:34:39.075Z,101152.78
2023-01-17T00:37:25.040Z,101147.75
2023-01-17T00:40:11.586Z,101140.16
2023-01-17T00:42:57.834Z,101131.97
2023-01-17T00:45:43.892Z,101140.41
2023-01-17T00:48:31.712Z,101132.31
2023-01-17T00:51:17.725Z,101126.31
2023-01-17T00:54:04.006Z,101129.13
2023-01-17T00:56:50.302Z,101124.19
2023-01-17T00:59:36.391Z,101111.63
2023-01-17T01:02:22.519Z,101110.25
2023-01-17T01:05:08.769Z,101104.03
2023-01-17T01:07:55.153Z,101110.84
2023-01-17T01:10:41.236Z,101111.72
2023-01-17T01:13:27.408Z,101102.56
2023-01-17T01:16:13.695Z,101102.28
2023-01-17T01:19:00.354Z,101085.16
2023-01-17T01:21:46.467Z,101080.88
2023-01-17T01:24:32.534Z,101076.38
2023-01-17T01:27:18.711Z,101076.59
2023-01-17T01:30:04.688Z,101073.31
2023-01-17T01:32:56.952Z,101083.28
2023-01-17T01:35:26.476Z,101072.69
2023-01-17T01:37:53.992Z,101067.16
2023-01-17T01:40:22.564Z,101078.91
2023-01-17T01:42:54.533Z,101072.31
2023-01-17T01:45:24.681Z,101079.13
2023-01-17T01:48:22.337Z,101078.19
2023-01-17T01:50:50.125Z,101072.03
2023-01-17T01:53:18.288Z,101057.88
2023-01-17T01:55:45.956Z,101066.44
2023-01-17T01:58:23.989Z,101065.44
2023-01-17T02:00:51.616Z,101071.75
2023-01-17T02:03:25.083Z,101071.69
2023-01-17T02:05:52.712Z,101061.75
2023-01-17T02:08:21.426Z,101068.31
2023-01-17T02:10:49.244Z,101069.84
2023-01-17T02:13:17.957Z,101069.25
2023-01-17T02:15:45.421Z,101064.78
2023-01-17T02:18:34.836Z,101061.13
2023-01-17T02:21:26.694Z,101054.09
2023-01-17T02:24:24.678Z,101056.88
2023-01-17T02:27:00.610Z,101059.47
2023-01-17T02:29:37.295Z,101057.97
2023-01-17T02:32:14.978Z,101057.63
2023-01-17T02:35:14.308Z,101047.81
2023-01-17T02:38:00.405Z,101044.78
2023-01-17T02:40:35.248Z,101052.09
2023-01-17T02:43:05.728Z,101043.28
2023-01-17T02:45:33.897Z,101036.13
2023-01-17T02:48:01.501Z,101037.09
2023-01-17T02:50:39.781Z,101020.72
2023-01-17T02:53:30.021Z,101019.31
2023-01-17T02:56:03.228Z,101022.00
2023-01-17T02:58:50.641Z,101018.16
2023-01-17T03:01:47.716Z,101007.66
2023-01-17T03:04:18.690Z,101017.13
2023-01-17T03:06:54.869Z,101016.69
2023-01-17T03:09:22.491Z,101013.22
2023-01-17T03:11:52.457Z,101020.53
2023-01-17T03:14:20.070Z,101014.03
2023-01-17T03:16:47.673Z,101013.03
2023-01-17T03:19:16.270Z,101018.41
2023-01-17T03:21:44.817Z,101021.00
2023-01-17T03:24:12.593Z,101021.81
2023-01-17T03:26:40.186Z,101014.84
2023-01-17T03:29:07.765Z,101011.34
2023-01-17T03:31:35.837Z,101010.50
2023-01-17T03:34:03.409Z,101004.91
2023-01-17T03:36:31.033Z,101011.34
2023-01-17T03:38:58.620Z,101001.72
2023-01-17T03:41:26.223Z,101006.19
2023-01-17T03:43:54.055Z,100993.31
2023-01-17T03:46:23.407Z,100995.84
2023-01-17T03:48:51.038Z,100994.22
2023-01-17T03:51:19.297Z,100991.94
2023-01-17T03:53:47.116Z,100991.59
2023-01-17T03:56:14.767Z,100998.13
2023-01-17T03:58:42.518Z,100996.75
2023-01-17T04:01:10.576Z,100996.16
2023-01-17T04:03:56.396Z,100996.75
2023-01-17T04:06:24.224Z,100997.41
2023-01-17T04:08:52.115Z,100992.06
2023-01-17T04:11:19.937Z,100995.59
2023-01-17T04:13:49.659Z,100999.91
2023-01-17T04:16:17.532Z,100995.94
2023-01-17T04:18:45.108Z,100989.31
2023-01-17T04:21:13.096Z,100983.41
2023-01-17T04:23:41.119Z,100981.47
2023-01-17T04:26:09.671Z,100976.84
2023-01-17T04:28:37.509Z,100978.44
2023-01-17T04:31:05.246Z,100972.00
2023-01-17T04:33:33.549Z,100966.44
2023-01-17T04:36:01.140Z,100966.22
2023-01-17T04:38:28.799Z,100958.91
2023-01-17T04:40:56.393Z,100957.63
2023-01-17T04:43:24.024Z,100962.63
2023-01-17T04:45:56.535Z,100971.19
2023-01-17T04:48:24.703Z,100972.72
2023-01-17T04:50:52.239Z,100972.38
2023-01-17T04:53:19.803Z,100966.31
2023-01-17T04:55:47.371Z,100966.81
2023-01-17T04:58:14.950Z,100974.06
2023-01-17T05:00:42.513Z,100977.72
2023-01-17T05:03:10.584Z,100961.53
2023-01-17T05:05:38.120Z,100956.69
2023-01-17T05:08:06.043Z,100957.53
2023-01-17T05:10:34.910Z,100958.16
2023-01-17T05:13:03.253Z,100955.59
2023-01-17T05:15:30.881Z,100958.88
2023-01-17T05:17:58.654Z,100958.78
2023-01-17T05:20:26.668Z,100953.94
2023-01-17T05:22:55.651Z,100954.53
2023-01-17T05:25:28.133Z,100948.66
2023-01-17T05:27:55.887Z,100945.81
2023-01-17T05:30:23.732Z,100944.56
2023-01-17T05:32:52.169Z,100946.25
2023-01-17T05:35:21.070Z,100951.53
2023-01-17T05:37:51.884Z,100956.38
2023-01-17T05:40:21.197Z,100956.59
2023-01-17T05:42:55.011Z,100956.13
2023-01-17T05:45:23.469Z,100955.22
2023-01-17T05:47:52.117Z,100966.56
2023-01-17T05:50:25.925Z,100973.53
2023-01-17T05:52:55.903Z,100962.56
2023-01-17T05:55:23.958Z,100944.53
2023-01-17T05:57:51.671Z,100940.41
2023-01-17T06:00:19.942Z,100950.03
2023-01-17T06:02:47.853Z,100947.50
2023-01-17T06:05:17.792Z,100950.53
2023-01-17T06:07:46.180Z,100949.72
2023-01-17T06:10:14.690Z,100955.31
2023-01-17T06:12:43.344Z,100952.66
2023-01-17T06:15:14.196Z,100943.50
2023-01-17T06:17:42.353Z,100941.91
2023-01-17T06:20:11.018Z,100930.06
2023-01-17T06:22:38.745Z,100936.53
2023-01-17T06:25:07.159Z,100943.88
2023-01-17T06:27:35.165Z,100934.56
2023-01-17T06:30:03.972Z,100923.69
2023-01-17T06:32:31.860Z,100937.13
2023-01-17T06:34:59.364Z,100934.31
2023-01-17T06:37:26.948Z,100937.47
2023-01-17T06:39:54.614Z,100943.34
2023-01-17T06:42:22.425Z,100937.09
2023-01-17T06:44:49.936Z,100947.94
2023-01-17T06:47:17.496Z,100932.75
2023-01-17T06:49:44.990Z,100925.69
2023-01-17T06:52:12.529Z,100927.28
2023-01-17T06:54:40.322Z,100922.69
2023-01-17T06:57:07.848Z,100915.81
2023-01-17T06:59:35.452Z,100911.19
2023-01-17T07:02:03.031Z,100918.63
2023-01-17T07:04:30.812Z,100913.94
2023-01-17T07:06:58.320Z,100910.47
2023-01-17T07:09:25.861Z,100915.38
2023-01-17T07:11:59.728Z,100914.16
2023-01-17T07:14:27.588Z,100905.16
2023-01-17T07:16:55.787Z,100910.53
2023-01-17T07:19:24.153Z,100902.00
2023-01-17T07:21:52.738Z,100899.06
2023-01-17T07:24:20.635Z,100898.53
2023-01-17T07:26:49.273Z,100906.28
2023-01-17T07:29:17.024Z,100909.69
2023-01-17T07:31:44.756Z,100891.75
2023-01-17T07:34:12.489Z,100896.34
2023-01-17T07:36:40.001Z,100902.91
2023-01-17T07:39:10.683Z,100900.38
2023-01-17T07:41:41.512Z,100890.25
2023-01-17T07:44:12.192Z,100902.00
2023-01-17T07:46:40.356Z,100895.03
2023-01-17T07:49:08.265Z,100896.09
2023-01-17T07:51:35.979Z,100888.47
2023-01-17T07:54:03.774Z,100891.63
2023-01-17T07:56:31.562Z,100887.78
2023-01-17T07:58:59.148Z,100886.81
2023-01-17T08:01:27.475Z,100894.19
2023-01-17T08:04:10.043Z,100889.97
2023-01-17T08:06:38.113Z,100881.16
2023-01-17T08:09:07.049Z,100890.16
2023-01-17T08:11:35.159Z,100898.50
2023-01-17T08:14:02.758Z,100894.34
2023-01-17T08:16:32.985Z,100887.22
2023-01-17T08:19:00.734Z,100888.53
2023-01-17T08:21:28.793Z,100887.31
2023-01-17T08:23:56.687Z,100877.97
2023-01-17T08:26:25.069Z,100870.59
2023-01-17T08:28:57.097Z,100872.31
2023-01-17T08:31:24.946Z,100872.88
2023-01-17T08:33:52.789Z,100883.66
2023-01-17T08:36:20.815Z,100880.69
2023-01-17T08:38:53.031Z,100887.53
2023-01-17T08:41:21.526Z,100887.66
2023-01-17T08:43:49.608Z,100892.22
2023-01-17T08:46:17.525Z,100875.16
2023-01-17T08:48:45.235Z,100881.66
2023-01-17T08:51:13.020Z,100872.88
2023-01-17T08:53:40.873Z,100866.34
2023-01-17T08:56:09.380Z,100867.44
2023-01-17T08:58:37.042Z,100869.56
2023-01-17T09:01:05.717Z,100887.03
2023-01-17T09:03:34.069Z,100890.47
2023-01-17T09:06:09.027Z,100898.88
2023-01-17T09:08:41.755Z,100885.19
2023-01-17T09:11:13.814Z,100873.69
2023-01-17T09:13:41.462Z,100875.53
2023-01-17T09:16:09.499Z,100866.13
2023-01-17T09:18:40.789Z,100870.53
2023-01-17T09:21:16.077Z,100871.97
2023-01-17T09:23:43.884Z,100866.72
2023-01-17T09:26:22.427Z,100863.41
2023-01-17T09:28:50.192Z,100857.44
2023-01-17T09:31:18.523Z,100838.38
2023-01-17T09:33:46.693Z,100843.47
2023-01-17T09:36:14.345Z,100837.91
2023-01-17T09:38:41.964Z,100831.34
2023-01-17T09:41:23.705Z,100833.06
2023-01-17T09:43:52.616Z,100832.38
2023-01-17T09:46:24.030Z,100826.41
2023-01-17T09:48:57.249Z,100820.66
2023-01-17T09:51:26.371Z,100810.19
2023-01-17T09:53:53.924Z,100815.41
2023-01-17T09:56:29.775Z,100819.84
2023-01-17T09:59:08.714Z,100816.28
2023-01-17T10:01:42.372Z,100814.09
2023-01-17T10:04:34.831Z,100825.00
2023-01-17T10:07:13.638Z,100821.97
2023-01-17T10:09:53.847Z,100820.38
2023-01-17T10:12:44.906Z,100806.38
2023-01-17T10:15:39.287Z,100805.53
2023-01-17T10:18:30.522Z,100802.16
2023-01-17T10:21:01.683Z,100791.72
2023-01-17T10:24:06.663Z,100790.50
2023-01-17T10:26:34.444Z,100788.50
2023-01-17T10:29:04.116Z,100791.44
2023-01-17T10:31:39.402Z,100791.09
2023-01-17T10:34:13.857Z,100791.94
2023-01-17T10:36:47.010Z,100791.31
2023-01-17T10:39:22.222Z,100783.03
2023-01-17T10:42:00.966Z,100791.31
2023-01-17T10:44:35.978Z,100780.72
2023-01-17T10:47:15.025Z,100778.84
2023-01-17T10:49:47.416Z,100767.06
2023-01-17T10:52:24.702Z,100764.06
2023-01-17T10:54:52.357Z,100760.09
2023-01-17T10:57:24.443Z,100760.59
2023-01-17T10:59:52.541Z,100769.81
2023-01-17T11:02:30.428Z,100765.50
2023-01-17T11:04:58.466Z,100763.56
2023-01-17T11:07:27.447Z,100765.44
2023-01-17T11:09:58.865Z,100751.34
2023-01-17T11:12:46.440Z,100741.38
2023-01-17T11:15:13.932Z,100745.63
2023-01-17T11:18:00.341Z,100722.16
2023-01-17T11:20:38.144Z,100720.34
2023-01-17T11:23:06.438Z,100730.88
2023-01-17T11:25:34.559Z,100713.72
2023-01-17T11:28:40.501Z,100714.53
2023-01-17T11:31:24.067Z,100693.03
2023-01-17T11:34:18.783Z,100693.81
2023-01-17T11:36:50.234Z,100701.69
2023-01-17T11:39:18.319Z,100689.69
2023-01-17T11:41:47.910Z,100698.47
2023-01-17T11:44:31.022Z,100695.66
2023-01-17T11:47:09.943Z,100705.25
2023-01-17T11:49:38.356Z,100706.44
2023-01-17T11:52:10.202Z,100706.38
2023-01-17T11:54:42.832Z,100693.53
2023-01-17T11:57:32.042Z,100681.41
2023-01-17T12:00:09.176Z,100690.88
2023-01-17T12:02:52.357Z,100693.66
2023-01-17T12:05:33.792Z,100699.19
2023-01-17T12:08:30.615Z,100698.19
2023-01-17T12:11:16.889Z,100676.72
2023-01-17T12:14:02.803Z,100675.13
2023-01-17T12:16:52.332Z,100675.50
2023-01-17T12:19:27.254Z,100673.16
2023-01-17T12:22:13.763Z,100669.53
2023-01-17T12:24:50.643Z,100671.16
2023-01-17T12:27:43.487Z,100666.31
2023-01-17T12:30:25.582Z,100651.84
2023-01-17T12:33:09.563Z,100652.22
2023-01-17T12:35:38.950Z,100654.06
2023-01-17T12:38:14.044Z,100650.84
2023-01-17T12:40:52.083Z,100648.09
2023-01-17T12:43:33.621Z,100663.47
2023-01-17T12:46:03.325Z,100661.44
2023-01-17T12:48:34.806Z,100661.50
2023-01-17T12:51:09.162Z,100657.50
2023-01-17T12:54:13.402Z,100647.91
2023-01-17T12:57:03.868Z,100647.59
2023-01-17T12:59:50.159Z,100656.13
2023-01-17T13:02:23.209Z,100664.25
2023-01-17T13:04:58.856Z,100656.47
2023-01-17T13:08:15.315Z,100663.94
2023-01-17T13:10:59.797Z,100650.66
2023-01-17T13:13:29.015Z,100650.66
2023-01-17T13:16:07.537Z,100653.50
2023-01-17T13:18:35.510Z,100641.34
2023-01-17T13:21:27.499Z,100650.84
2023-01-17T13:23:59.285Z,100655.09
2023-01-17T13:26:53.484Z,100651.47
2023-01-17T13:29:39.569Z,100658.13
2023-01-17T13:32:40.396Z,100648.13
2023-01-17T13:35:42.999Z,100662.19
2023-01-17T13:38:34.761Z,100636.25
2023-01-17T13:41:10.896Z,100638.97
2023-01-17T13:43:40.885Z,100635.59
2023-01-17T13:46:08.694Z,100633.88
2023-01-17T13:48:41.105Z,100634.38
2023-01-17T13:51:09.730Z,100638.50
2023-01-17T13:53:40.217Z,100642.56
2023-01-17T13:56:20.170Z,100642.00
2023-01-17T13:58:52.007Z,100654.00
2023-01-17T14:01:22.826Z,100649.28
2023-01-17T14:03:50.529Z,100654.22
2023-01-17T14:06:37.160Z,100650.44
2023-01-17T14:09:29.936Z,100648.31
2023-01-17T14:12:05.586Z,100644.38
2023-01-17T14:14:45.635Z,100641.50
2023-01-17T14:17:17.651Z,100633.81
2023-01-17T14:19:48.481Z,100640.28
2023-01-17T14:22:19.222Z,100641.22
2023-01-17T14:25:09.952Z,100641.13
2023-01-17T14:27:58.552Z,100640.25
2023-01-17T14:30:28.579Z,100648.00
2023-01-17T14:32:59.130Z,100639.75
2023-01-17T14:35:40.907Z,100634.13
2023-01-17T14:38:22.855Z,100639.03
2023-01-17T14:40:56.311Z,100631.56
2023-01-17T14:43:27.576Z,100635.28
2023-01-17T14:46:02.413Z,100635.09
2023-01-17T14:48:30.329Z,100630.53
2023-01-17T14:51:00.523Z,100637.66
2023-01-17T14:53:31.822Z,100632.56
2023-01-17T14:56:12.384Z,100628.13
2023-01-17T14:58:41.376Z,100630.13
2023-01-17T15:01:16.371Z,100634.63
2023-01-17T15:03:51.068Z,100631.91
2023-01-17T15:06:20.968Z,100613.94
2023-01-17T15:08:49.149Z,100625.09
2023-01-17T15:11:26.998Z,100621.09
2023-01-17T15:13:57.632Z,100617.53
2023-01-17T15:16:30.286Z,100625.16
2023-01-17T15:18:57.969Z,100622.56
2023-01-17T15:21:28.440Z,100632.44
2023-01-17T15:24:01.584Z,100631.94
2023-01-17T15:26:32.010Z,100627.31
2023-01-17T15:29:05.578Z,100617.91
2023-01-17T15:31:43.724Z,100622.97
2023-01-17T15:34:38.209Z,100616.47
2023-01-17T15:37:24.606Z,100624.63
2023-01-17T15:39:52.344Z,100620.91
2023-01-17T15:42:23.192Z,100612.41
2023-01-17T15:44:55.548Z,100620.22
2023-01-17T15:47:40.974Z,100622.25
2023-01-17T15:50:30.676Z,100613.94
2023-01-17T15:53:05.350Z,100608.72
2023-01-17T15:55:37.216Z,100611.88
2023-01-17T15:58:05.872Z,100622.25
2023-01-17T16:00:38.489Z,100622.34
2023-01-17T16:03:31.886Z,100617.34
2023-01-17T16:06:00.879Z,100613.41
2023-01-17T16:08:40.616Z,100613.72
2023-01-17T16:11:08.715Z,100615.25
2023-01-17T16:13:42.436Z,100618.91
2023-01-17T16:16:13.250Z,100620.81
2023-01-17T16:18:44.378Z,100626.38
2023-01-17T16:21:21.428Z,100623.88
2023-01-17T16:23:49.459Z,100615.03
2023-01-17T16:26:17.148Z,100612.31
2023-01-17T16:28:45.931Z,100606.00
2023-01-17T16:31:13.738Z,100598.56
2023-01-17T16:33:42.557Z,100607.00
2023-01-17T16:36:13.141Z,100609.13
2023-01-17T16:38:41.403Z,100602.25
2023-01-17T16:41:09.132Z,100605.94
2023-01-17T16:43:37.186Z,100603.91
2023-01-17T16:46:05.024Z,100595.06
2023-01-17T16:48:33.853Z,100597.69
2023-01-17T16:51:02.288Z,100614.69
2023-01-17T16:53:30.150Z,100610.31
2023-01-17T16:55:59.665Z,100611.47
2023-01-17T16:58:28.503Z,100599.91
2023-01-17T17:00:56.788Z,100601.19
2023-01-17T17:03:25.249Z,100606.06
2023-01-17T17:05:59.147Z,100597.94
2023-01-17T17:08:29.253Z,100615.34
2023-01-17T17:11:15.426Z,100607.06
2023-01-17T17:13:44.795Z,100618.22
2023-01-17T17:16:17.758Z,100617.53
2023-01-17T17:18:46.171Z,100609.25
2023-01-17T17:21:14.137Z,100616.84
2023-01-17T17:23:43.335Z,100619.41
2023-01-17T17:26:11.443Z,100619.06
2023-01-17T17:28:39.106Z,100608.94
2023-01-17T17:31:10.548Z,100615.28
2023-01-17T17:33:41.751Z,100622.47
2023-01-17T17:36:12.742Z,100618.22
2023-01-17T17:38:58.276Z,100620.78
2023-01-17T17:41:27.624Z,100629.56
2023-01-17T17:43:55.334Z,100623.47
2023-01-17T17:46:24.051Z,100628.28
2023-01-17T17:48:52.055Z,100617.75
2023-01-17T17:51:27.980Z,100623.47
2023-01-17T17:53:56.355Z,100610.84
2023-01-17T17:56:24.042Z,100620.81
2023-01-17T17:58:51.881Z,100628.59
2023-01-17T18:01:22.877Z,100633.69
2023-01-17T18:03:52.137Z,100609.44
2023-01-17T18:06:20.133Z,100629.94
2023-01-17T18:08:48.736Z,100626.06
2023-01-17T18:11:22.773Z,100616.91
2023-01-17T18:13:51.268Z,100630.13
2023-01-17T18:16:24.239Z,100631.78
2023-01-17T18:18:53.699Z,100633.63
2023-01-17T18:21:25.489Z,100644.84
2023-01-17T18:24:00.634Z,100649.38
2023-01-17T18:26:39.064Z,100639.56
2023-01-17T18:29:07.607Z,100642.97
2023-01-17T18:31:35.833Z,100636.22
2023-01-17T18:34:05.797Z,100647.47
2023-01-17T18:36:34.976Z,100648.84
2023-01-17T18:39:05.183Z,100648.31
2023-01-17T18:41:33.390Z,100648.16
2023-01-17T18:44:04.189Z,100652.63
2023-01-17T18:46:32.132Z,100656.28
2023-01-17T18:48:59.875Z,100659.38
2023-01-17T18:51:29.010Z,100651.56
2023-01-17T18:53:58.152Z,100650.56
2023-01-17T18:56:30.763Z,100649.69
2023-01-17T18:58:58.489Z,100650.72
2023-01-17T19:01:29.114Z,100660.16
2023-01-17T19:03:58.123Z,100655.06
2023-01-17T19:06:33.438Z,100658.94
2023-01-17T19:09:01.759Z,100648.09
2023-01-17T19:11:29.680Z,100655.84
2023-01-17T19:13:57.529Z,100644.00
2023-01-17T19:16:30.340Z,100655.22
2023-01-17T22:27:41.850Z,100671.13
2023-01-17T22:30:13.171Z,100667.25
2023-01-17T22:32:41.088Z,100665.84
2023-01-17T22:35:09.618Z,100655.22
2023-01-17T22:37:37.647Z,100656.41
2023-01-17T22:40:06.155Z,100655.38
2023-01-17T22:42:34.646Z,100666.56
2023-01-17T22:45:05.092Z,100655.84
2023-01-17T22:47:34.419Z,100666.06
2023-01-17T22:50:02.351Z,100663.38
2023-01-17T22:52:30.454Z,100656.28
2023-01-17T22:54:58.364Z,100653.19
2023-01-17T22:57:26.065Z,100650.84
2023-01-17T22:59:53.981Z,100643.72
2023-01-17T23:02:21.906Z,100655.59
2023-01-17T23:04:49.738Z,100662.84
2023-01-17T23:07:18.245Z,100644.56
2023-01-17T23:09:46.117Z,100647.47
2023-01-17T23:12:13.809Z,100633.38
2023-01-17T23:15:01.872Z,100644.88
2023-01-17T23:17:48.011Z,100644.03
2023-01-17T23:20:15.758Z,100646.78
2023-01-17T23:22:43.347Z,100653.25
2023-01-17T23:25:13.466Z,100652.56
2023-01-17T23:28:03.397Z,100637.44
2023-01-17T23:30:34.680Z,100639.69
2023-01-17T23:33:03.260Z,100644.38
2023-01-17T23:35:32.663Z,100650.00
2023-01-17T23:38:18.870Z,100641.22
2023-01-17T23:41:06.757Z,100658.22
2023-01-17T23:43:34.947Z,100656.69
2023-01-17T23:46:02.788Z,100642.41
2023-01-17T23:48:31.390Z,100643.81
2023-01-17T23:51:30.639Z,100656.22
2023-01-17T23:54:05.547Z,100663.19
2023-01-17T23:56:33.769Z,100666.56
2023-01-17T23:59:01.550Z,100667.53
